Terminal Aerodrome Forecast
Issued by NWS Bismarck, ND

Home | Current Version | Previous Version | Text Only | Print | Product List | Glossary On
Versions: 1 2 3 4 5 6 7 8 9 10 11 12 13 14 15 16
000
FTUS43 KBIS 250032 AAA
TAFISN
TAF AMD
KISN 250032Z 2501/2524 23007KT P6SM VCSH SCT040 BKN080
      TEMPO 2501/2505 BKN025
     FM250500 26006KT P6SM BKN050
     FM250900 26007KT P6SM SCT250=

USA.gov is the U.S. government's official web portal to all federal, state and local government web resources and services.